createdAt,value
2022-08-19T00:01:53.396Z,60.28
2022-08-19T00:04:25.422Z,60.65
2022-08-19T00:06:53.457Z,60.66
2022-08-19T00:09:23.158Z,60.70
2022-08-19T00:11:52.186Z,60.69
2022-08-19T00:14:21.673Z,60.60
2022-08-19T00:16:50.115Z,60.90
2022-08-19T00:19:18.007Z,60.89
2022-08-19T00:21:45.588Z,61.01
2022-08-19T00:24:15.785Z,61.27
2022-08-19T00:26:44.561Z,61.35
2022-08-19T00:29:13.791Z,61.59
2022-08-19T00:31:43.697Z,61.57
2022-08-19T00:34:13.038Z,61.61
2022-08-19T00:36:44.356Z,61.71
2022-08-19T00:39:12.672Z,61.92
2022-08-19T00:41:41.392Z,61.92
2022-08-19T00:44:11.128Z,61.87
2022-08-19T00:46:42.135Z,62.17
2022-08-19T00:49:21.244Z,62.22
2022-08-19T00:51:52.657Z,62.48
2022-08-19T00:54:31.130Z,62.55
2022-08-19T00:57:00.664Z,62.86
2022-08-19T00:59:56.390Z,62.77
2022-08-19T01:02:18.256Z,62.97
2022-08-19T01:04:46.096Z,63.04
2022-08-19T01:07:15.216Z,63.14
2022-08-19T01:09:47.903Z,63.27
2022-08-19T01:12:17.777Z,63.29
2022-08-19T01:14:46.396Z,63.16
2022-08-19T01:17:15.969Z,63.37
2022-08-19T01:19:47.290Z,63.47
2022-08-19T01:22:33.707Z,63.58
2022-08-19T01:25:02.409Z,63.71
2022-08-19T01:27:44.099Z,63.60
2022-08-19T01:30:17.611Z,63.81
2022-08-19T01:32:45.467Z,63.95
2022-08-19T01:35:18.995Z,63.82
2022-08-19T01:37:51.973Z,63.94
2022-08-19T01:40:21.698Z,64.17
2022-08-19T01:42:50.868Z,64.25
2022-08-19T01:45:19.877Z,64.16
2022-08-19T01:47:55.560Z,64.34
2022-08-19T01:50:31.874Z,64.63
2022-08-19T01:53:06.210Z,64.64
2022-08-19T01:55:40.517Z,64.62
2022-08-19T01:58:21.826Z,64.64
2022-08-19T02:00:49.662Z,64.89
2022-08-19T02:03:17.732Z,64.84
2022-08-19T02:05:46.666Z,65.04
2022-08-19T02:08:14.329Z,64.99
2022-08-19T02:10:44.434Z,65.31
2022-08-19T02:13:14.347Z,65.10
2022-08-19T02:15:42.617Z,65.20
2022-08-19T02:18:11.596Z,65.36
2022-08-19T02:20:41.524Z,65.56
2022-08-19T02:23:13.717Z,65.50
2022-08-19T02:25:46.671Z,65.59
2022-08-19T02:28:18.585Z,65.61
2022-08-19T02:30:48.783Z,65.78
2022-08-19T02:33:17.654Z,65.89
2022-08-19T02:35:47.594Z,66.06
2022-08-19T02:38:32.132Z,66.16
2022-08-19T02:41:04.084Z,66.16
2022-08-19T02:43:34.755Z,66.26
2022-08-19T02:46:12.637Z,66.34
2022-08-19T02:48:40.629Z,66.60
2022-08-19T02:51:08.251Z,66.64
2022-08-19T02:53:35.880Z,66.63
2022-08-19T02:56:07.824Z,66.81
2022-08-19T02:58:35.548Z,66.88
2022-08-19T03:01:03.353Z,67.04
2022-08-19T03:03:31.139Z,67.00
2022-08-19T03:06:15.932Z,67.03
2022-08-19T03:08:47.408Z,67.19
2022-08-19T03:11:21.705Z,67.17
2022-08-19T03:13:51.692Z,67.32
2022-08-19T03:16:20.642Z,67.40
2022-08-19T03:18:49.113Z,67.63
2022-08-19T03:21:26.925Z,67.83
2022-08-19T03:23:55.502Z,67.77
2022-08-19T03:26:23.203Z,67.79
2022-08-19T03:28:57.996Z,68.02
2022-08-19T03:31:43.488Z,68.00
2022-08-19T03:34:18.611Z,68.15
2022-08-19T03:36:47.642Z,68.22
2022-08-19T03:39:15.897Z,68.30
2022-08-19T03:41:48.130Z,68.36
2022-08-19T03:44:21.740Z,68.43
2022-08-19T03:46:53.236Z,68.47
2022-08-19T03:49:27.107Z,68.55
2022-08-19T03:51:58.049Z,68.63
2022-08-19T03:54:27.100Z,68.75
2022-08-19T03:56:57.224Z,68.70
2022-08-19T03:59:31.504Z,68.89
2022-08-19T04:02:04.087Z,68.90
2022-08-19T04:04:32.075Z,68.92
2022-08-19T04:06:59.747Z,68.96
2022-08-19T04:09:27.880Z,68.98
2022-08-19T04:11:57.678Z,68.80
2022-08-19T04:14:31.018Z,69.00
2022-08-19T04:17:00.093Z,69.00
2022-08-19T04:19:30.493Z,69.07
2022-08-19T04:21:59.198Z,69.12
2022-08-19T04:24:27.259Z,69.36
2022-08-19T04:26:55.111Z,69.38
2022-08-19T04:29:26.467Z,69.38
2022-08-19T04:31:56.429Z,69.54
2022-08-19T04:34:26.426Z,69.46
2022-08-19T04:36:57.086Z,69.55
2022-08-19T04:39:48.665Z,69.42
2022-08-19T04:42:34.887Z,69.57
2022-08-19T04:45:05.391Z,69.37
2022-08-19T04:47:47.591Z,69.33
2022-08-19T04:50:28.954Z,69.50
2022-08-19T04:52:56.871Z,69.57
2022-08-19T04:55:26.592Z,69.31
2022-08-19T04:57:55.048Z,69.42
2022-08-19T05:00:23.239Z,69.28
2022-08-19T05:02:51.011Z,69.20
2022-08-19T05:05:20.609Z,69.07
2022-08-19T05:07:52.424Z,69.16
2022-08-19T05:10:20.343Z,69.14
2022-08-19T05:12:47.996Z,69.11
2022-08-19T05:15:15.779Z,69.16
2022-08-19T05:18:03.447Z,69.10
2022-08-19T05:20:47.029Z,69.00
2022-08-19T05:23:20.486Z,69.08
2022-08-19T05:25:51.487Z,69.24
2022-08-19T05:28:21.264Z,69.16
2022-08-19T05:30:51.428Z,69.14
2022-08-19T05:33:19.442Z,68.94
2022-08-19T05:35:47.062Z,68.99
2022-08-19T05:38:14.882Z,68.83
2022-08-19T05:40:47.489Z,68.75
2022-08-19T05:43:18.375Z,68.71
2022-08-19T05:45:46.493Z,68.62
2022-08-19T05:48:15.123Z,68.71
2022-08-19T05:50:43.109Z,68.50
2022-08-19T05:53:10.873Z,68.34
2022-08-19T05:55:39.523Z,68.17
2022-08-19T05:58:10.374Z,68.24
2022-08-19T06:00:38.507Z,68.09
2022-08-19T06:03:11.873Z,67.89
2022-08-19T06:05:46.808Z,67.80
2022-08-19T06:08:21.035Z,67.68
2022-08-19T06:11:45.894Z,67.42
2022-08-19T06:14:19.471Z,67.39
2022-08-19T06:16:55.764Z,67.23
2022-08-19T06:19:25.242Z,67.05
2022-08-19T06:21:54.060Z,67.02
2022-08-19T06:24:24.785Z,66.83
2022-08-19T06:26:57.961Z,66.73
2022-08-19T06:29:30.228Z,66.65
2022-08-19T06:32:01.046Z,66.53
2022-08-19T06:34:31.680Z,66.39
2022-08-19T06:37:04.179Z,66.27
2022-08-19T06:39:39.287Z,66.05
2022-08-19T06:42:09.730Z,65.79
2022-08-19T06:44:42.638Z,65.67
2022-08-19T06:47:25.024Z,65.48
2022-08-19T06:50:03.168Z,65.35
2022-08-19T06:52:34.860Z,65.02
2022-08-19T06:55:06.145Z,64.85
2022-08-19T06:57:35.185Z,64.61
2022-08-19T07:00:07.143Z,64.32
2022-08-19T07:02:38.356Z,64.16
2022-08-19T07:05:06.852Z,64.09
2022-08-19T07:07:35.545Z,63.93
2022-08-19T07:10:07.711Z,63.67
2022-08-19T07:12:36.121Z,63.60
2022-08-19T07:15:07.243Z,63.44
2022-08-19T07:17:38.181Z,63.45
2022-08-19T07:20:09.388Z,63.35
2022-08-19T07:22:38.921Z,62.95
2022-08-19T07:25:09.242Z,62.84
2022-08-19T07:27:38.169Z,62.73
2022-08-19T07:30:11.675Z,62.78
2022-08-19T07:32:40.958Z,62.33
2022-08-19T07:35:10.457Z,62.24
2022-08-19T07:37:39.130Z,61.90
2022-08-19T07:40:08.658Z,61.68
2022-08-19T07:42:36.678Z,61.47
2022-08-19T07:45:06.517Z,61.49
2022-08-19T07:47:58.577Z,61.00
2022-08-19T07:50:22.597Z,60.75
2022-08-19T07:52:51.092Z,60.47
2022-08-19T07:55:43.257Z,60.38
2022-08-19T07:58:13.501Z,59.86
2022-08-19T08:00:42.600Z,59.59
2022-08-19T08:03:11.703Z,59.71
2022-08-19T08:05:58.838Z,59.32
2022-08-19T08:08:48.280Z,59.05
2022-08-19T08:11:20.995Z,58.75
2022-08-19T08:14:00.723Z,58.61
2022-08-19T08:16:39.679Z,58.30
2022-08-19T08:19:20.408Z,58.08
2022-08-19T08:21:56.561Z,57.77
2022-08-19T08:24:28.596Z,57.42
2022-08-19T08:26:57.825Z,57.25
2022-08-19T08:29:35.080Z,56.96
2022-08-19T08:32:04.427Z,56.72
2022-08-19T08:34:43.027Z,56.64
2022-08-19T08:37:10.723Z,56.41
2022-08-19T08:39:38.940Z,56.41
2022-08-19T08:42:18.319Z,55.92
2022-08-19T08:44:59.312Z,55.92
2022-08-19T08:47:33.599Z,55.74
2022-08-19T08:50:26.291Z,55.68
2022-08-19T08:52:59.067Z,55.26
2022-08-19T08:55:36.791Z,55.21
2022-08-19T08:58:14.740Z,55.03
2022-08-19T09:00:47.512Z,54.94
2022-08-19T09:03:25.542Z,54.68
2022-08-19T09:05:56.093Z,54.38
2022-08-19T09:08:29.096Z,54.12
2022-08-19T09:10:58.336Z,54.15
2022-08-19T09:13:37.279Z,53.84
2022-08-19T09:16:13.938Z,53.96
2022-08-19T09:18:48.080Z,53.51
2022-08-19T09:21:16.608Z,53.61
2022-08-19T09:23:45.288Z,53.68
2022-08-19T09:26:24.277Z,53.60
2022-08-19T09:29:06.051Z,53.01
2022-08-19T09:31:34.364Z,53.28
2022-08-19T09:34:06.012Z,52.88
2022-08-19T09:36:36.917Z,52.83
2022-08-19T09:39:16.005Z,52.68
2022-08-19T09:41:47.369Z,52.94
2022-08-19T09:44:15.561Z,52.58
2022-08-19T09:46:44.270Z,52.45
2022-08-19T09:49:11.999Z,52.49
2022-08-19T09:51:41.339Z,52.14
2022-08-19T09:54:11.262Z,52.04
2022-08-19T09:56:39.375Z,51.74
2022-08-19T09:59:11.182Z,51.58
2022-08-19T10:01:39.601Z,51.50
2022-08-19T10:04:20.182Z,51.46
2022-08-19T10:06:53.656Z,51.18
2022-08-19T10:09:34.016Z,50.57
2022-08-19T10:12:06.120Z,50.61
2022-08-19T10:14:35.469Z,50.72
2022-08-19T10:17:17.555Z,50.34
2022-08-19T10:19:55.171Z,50.15
2022-08-19T10:22:25.466Z,49.84
2022-08-19T10:24:54.482Z,49.46
2022-08-19T10:27:22.917Z,49.20
2022-08-19T10:29:50.812Z,49.60
2022-08-19T10:32:18.475Z,49.61
2022-08-19T10:34:59.654Z,49.05
2022-08-19T10:37:31.387Z,48.74
2022-08-19T10:40:00.510Z,48.53
2022-08-19T10:42:28.342Z,48.31
2022-08-19T10:44:56.115Z,48.29
2022-08-19T10:47:26.344Z,48.18
2022-08-19T10:50:15.783Z,47.63
2022-08-19T10:52:50.201Z,47.47
2022-08-19T10:55:39.671Z,47.56
2022-08-19T10:58:13.170Z,47.32
2022-08-19T11:00:43.821Z,46.86
2022-08-19T11:03:11.871Z,46.58
2022-08-19T11:05:40.467Z,46.59
2022-08-19T11:08:23.024Z,46.62
2022-08-19T11:10:56.238Z,45.95
2022-08-19T11:13:24.321Z,46.06
2022-08-19T11:16:05.117Z,45.97
2022-08-19T11:18:37.057Z,45.78
2022-08-19T11:21:25.412Z,45.49
2022-08-19T11:23:57.156Z,45.42
2022-08-19T11:26:26.362Z,44.92
2022-08-19T11:28:57.115Z,44.57
2022-08-19T11:31:29.228Z,44.65
2022-08-19T11:34:03.389Z,44.60
2022-08-19T11:36:33.298Z,44.42
2022-08-19T11:39:02.391Z,44.24
2022-08-19T11:41:30.033Z,44.23
2022-08-19T11:43:57.819Z,44.21
2022-08-19T11:46:30.294Z,43.79
2022-08-19T11:49:00.146Z,43.42
2022-08-19T11:51:29.202Z,43.30
2022-08-19T11:53:58.898Z,42.94
2022-08-19T11:56:28.418Z,42.93
2022-08-19T11:58:59.993Z,42.64
2022-08-19T12:01:28.450Z,42.54
2022-08-19T12:03:57.477Z,42.19
2022-08-19T12:06:32.590Z,42.03
2022-08-19T12:09:05.297Z,41.49
2022-08-19T12:11:34.482Z,41.63
2022-08-19T12:14:02.622Z,41.46
2022-08-19T12:16:32.663Z,41.05
2022-08-19T12:19:04.734Z,40.64
2022-08-19T12:21:36.003Z,40.25
2022-08-19T12:24:06.731Z,40.46
2022-08-19T12:26:39.005Z,40.58
2022-08-19T12:29:23.858Z,39.81
2022-08-19T12:31:52.646Z,39.59
2022-08-19T12:34:21.191Z,39.69
2022-08-19T12:36:50.736Z,39.50
2022-08-19T12:39:18.786Z,39.07
2022-08-19T12:41:54.068Z,39.12
2022-08-19T12:44:29.021Z,38.99
2022-08-19T12:46:57.958Z,38.28
2022-08-19T12:49:51.913Z,38.55
2022-08-19T12:52:16.850Z,38.10
2022-08-19T12:54:54.423Z,36.92
2022-08-19T12:57:32.882Z,36.83
2022-08-19T13:00:06.330Z,37.00
2022-08-19T13:02:38.535Z,35.78
2022-08-19T13:05:09.527Z,36.29
2022-08-19T13:07:39.659Z,36.13
2022-08-19T13:10:10.178Z,36.16
2022-08-19T13:12:37.907Z,35.68
2022-08-19T13:15:10.753Z,34.80
2022-08-19T13:17:40.788Z,34.15
2022-08-19T13:20:10.415Z,34.20
2022-08-19T13:22:38.657Z,34.16
2022-08-19T13:25:07.837Z,33.19
2022-08-19T13:27:39.214Z,33.22
2022-08-19T13:30:26.122Z,32.96
2022-08-19T13:33:09.987Z,32.56
2022-08-19T13:35:41.773Z,31.92
2022-08-19T13:38:12.125Z,31.70
2022-08-19T13:40:41.340Z,31.43
2022-08-19T13:43:17.847Z,30.57
2022-08-19T13:45:56.638Z,30.50
2022-08-19T13:48:27.145Z,30.34
2022-08-19T13:50:55.566Z,30.26
2022-08-19T13:53:24.050Z,29.53
2022-08-19T13:55:52.027Z,29.51
2022-08-19T13:58:19.620Z,29.34
2022-08-19T14:00:47.942Z,28.76
2022-08-19T14:03:16.045Z,28.68
2022-08-19T14:05:43.657Z,28.01
2022-08-19T14:08:14.956Z,27.45
2022-08-19T14:10:45.397Z,26.42
2022-08-19T14:13:20.756Z,26.37
2022-08-19T14:15:48.953Z,26.18
2022-08-19T14:18:19.006Z,26.47
2022-08-19T14:20:46.726Z,26.24
2022-08-19T14:23:14.508Z,26.35
2022-08-19T14:25:42.339Z,26.51
2022-08-19T14:28:10.448Z,26.19
2022-08-19T14:30:39.048Z,26.48
2022-08-19T14:33:08.174Z,26.21
2022-08-19T14:35:36.639Z,26.36
2022-08-19T14:38:05.837Z,26.45
2022-08-19T14:40:35.545Z,26.23
2022-08-19T14:43:05.393Z,26.04
2022-08-19T14:45:36.768Z,25.82
2022-08-19T14:48:05.620Z,25.53
2022-08-19T14:50:34.799Z,25.70
2022-08-19T14:53:09.345Z,25.10
2022-08-19T14:55:45.304Z,24.59
2022-08-19T14:58:29.230Z,24.81
2022-08-19T15:01:00.498Z,24.60
2022-08-19T15:03:29.843Z,24.63
2022-08-19T15:05:58.304Z,24.56
2022-08-19T15:08:27.580Z,24.74
2022-08-19T15:10:56.364Z,24.16
2022-08-19T15:13:26.066Z,24.01
2022-08-19T15:15:54.023Z,23.87
2022-08-19T15:18:22.634Z,23.98
2022-08-19T15:20:50.586Z,24.01
2022-08-19T15:23:20.562Z,23.93
2022-08-19T15:25:48.978Z,24.10
2022-08-19T15:28:17.164Z,24.36
2022-08-19T15:30:44.798Z,24.54
2022-08-19T15:33:16.339Z,24.33
2022-08-19T15:35:44.955Z,24.55
2022-08-19T15:38:16.021Z,24.61
2022-08-19T15:40:44.389Z,24.81
2022-08-19T15:43:12.111Z,25.06
2022-08-19T15:45:40.132Z,25.52
2022-08-19T15:48:08.097Z,25.73
2022-08-19T15:50:35.787Z,25.86
2022-08-19T15:53:07.262Z,25.84
2022-08-19T15:55:41.940Z,26.06
2022-08-19T15:58:28.920Z,26.20
2022-08-19T16:01:15.120Z,26.47
2022-08-19T16:03:59.730Z,26.68
2022-08-19T16:06:29.610Z,27.19
2022-08-19T16:09:04.481Z,27.64
2022-08-19T16:11:39.289Z,28.09
2022-08-19T16:14:09.364Z,28.17
2022-08-19T16:16:38.352Z,28.22
2022-08-19T16:19:10.196Z,28.41
2022-08-19T16:21:41.990Z,28.50
2022-08-19T16:24:13.153Z,28.43
2022-08-19T16:26:42.485Z,28.63
2022-08-19T16:29:12.956Z,28.70
2022-08-19T16:31:43.692Z,28.70
2022-08-19T16:34:13.171Z,28.83
2022-08-19T16:36:42.109Z,29.14
2022-08-19T16:39:15.554Z,29.46
2022-08-19T16:41:45.637Z,29.85
2022-08-19T16:44:15.403Z,29.89
2022-08-19T16:46:43.056Z,30.23
2022-08-19T16:49:11.288Z,30.54
2022-08-19T16:51:39.624Z,30.98
2022-08-19T16:54:07.683Z,31.28
2022-08-19T16:56:35.781Z,31.51
2022-08-19T16:59:03.705Z,32.20
2022-08-19T17:01:31.533Z,32.21
2022-08-19T17:03:59.299Z,32.34
2022-08-19T17:06:30.784Z,32.57
2022-08-19T17:09:01.399Z,32.81
2022-08-19T17:11:32.767Z,33.19
2022-08-19T17:14:02.453Z,33.43
2022-08-19T17:16:32.579Z,33.83
2022-08-19T17:19:02.454Z,34.14
2022-08-19T17:21:37.570Z,34.38
2022-08-19T17:24:08.481Z,34.40
2022-08-19T17:26:39.132Z,34.60
2022-08-19T17:29:06.807Z,34.98
2022-08-19T17:31:34.749Z,35.22
2022-08-19T17:34:03.643Z,35.41
2022-08-19T17:36:33.860Z,36.10
2022-08-19T17:39:03.917Z,35.86
2022-08-19T17:41:34.138Z,36.40
2022-08-19T17:44:03.679Z,36.66
2022-08-19T17:46:32.145Z,36.89
2022-08-19T17:49:00.097Z,37.28
2022-08-19T17:51:33.653Z,37.26
2022-08-19T17:54:02.115Z,37.60
2022-08-19T17:56:30.017Z,38.03
2022-08-19T17:59:00.635Z,38.18
2022-08-19T18:01:35.497Z,38.82
2022-08-19T18:04:19.349Z,38.85
2022-08-19T18:06:53.331Z,39.06
2022-08-19T18:09:27.129Z,39.34
2022-08-19T18:11:57.443Z,39.64
2022-08-19T18:14:34.103Z,39.97
2022-08-19T18:17:09.023Z,40.13
2022-08-19T18:19:43.756Z,40.63
2022-08-19T18:22:27.617Z,40.64
2022-08-19T18:24:57.143Z,41.03
2022-08-19T18:27:26.983Z,41.45
2022-08-19T18:29:59.458Z,41.31
2022-08-19T18:32:34.485Z,41.49
2022-08-19T18:35:11.982Z,41.67
2022-08-19T18:37:44.639Z,41.51
2022-08-19T18:40:33.427Z,41.69
2022-08-19T18:43:17.037Z,41.94
2022-08-19T18:46:01.192Z,41.82
2022-08-19T18:48:45.038Z,42.09
2022-08-19T18:51:14.448Z,41.99
2022-08-19T18:53:44.839Z,42.04
2022-08-19T18:56:15.904Z,42.14
2022-08-19T18:58:44.200Z,42.16
2022-08-19T19:01:17.138Z,42.26
2022-08-19T19:03:46.604Z,42.37
2022-08-19T19:06:19.147Z,42.43
2022-08-19T19:08:48.212Z,42.48
2022-08-19T19:11:33.794Z,42.66
2022-08-19T19:14:03.431Z,42.79
2022-08-19T19:16:32.243Z,42.80
2022-08-19T19:18:59.910Z,42.88
2022-08-19T19:21:31.858Z,42.97
2022-08-19T19:24:02.406Z,43.08
2022-08-19T19:26:30.478Z,43.25
2022-08-19T19:28:59.649Z,43.36
2022-08-19T19:31:27.309Z,43.54
2022-08-19T19:33:56.312Z,43.66
2022-08-19T19:36:24.002Z,43.69
2022-08-19T19:38:52.682Z,43.84
2022-08-19T19:41:25.781Z,43.96
2022-08-19T19:44:23.096Z,44.15
2022-08-19T19:46:43.518Z,44.39
2022-08-19T19:49:12.121Z,44.49
2022-08-19T19:51:41.155Z,44.65
2022-08-19T19:54:13.889Z,44.73
2022-08-19T19:56:48.091Z,44.82
2022-08-19T19:59:17.101Z,45.15
2022-08-19T20:01:46.970Z,45.26
2022-08-19T20:04:16.528Z,45.24
2022-08-19T20:06:46.335Z,45.55
2022-08-19T20:09:19.633Z,45.75
2022-08-19T20:11:53.792Z,45.82
2022-08-19T20:14:32.002Z,46.06
2022-08-19T20:17:00.324Z,46.19
2022-08-19T20:19:33.932Z,46.18
2022-08-19T20:22:01.422Z,46.30
2022-08-19T20:24:33.470Z,46.53
2022-08-19T20:27:02.527Z,46.62
2022-08-19T20:29:39.314Z,46.71
2022-08-19T20:32:10.600Z,46.81
2022-08-19T20:34:40.463Z,47.00
2022-08-19T20:37:09.482Z,47.21
2022-08-19T20:39:38.041Z,47.28
2022-08-19T20:42:06.008Z,47.45
2022-08-19T20:44:33.644Z,47.66
2022-08-19T20:47:04.052Z,48.01
2022-08-19T20:49:32.359Z,48.02
2022-08-19T20:52:00.293Z,47.99
2022-08-19T20:54:28.476Z,48.08
2022-08-19T20:56:56.792Z,48.03
2022-08-19T20:59:26.135Z,48.45
2022-08-19T21:01:53.896Z,48.22
2022-08-19T21:04:22.321Z,48.32
2022-08-19T21:06:50.963Z,48.32
2022-08-19T21:09:18.623Z,48.59
2022-08-19T21:11:46.262Z,48.77
2022-08-19T21:14:13.915Z,48.70
2022-08-19T21:16:41.554Z,49.07
2022-08-19T21:19:09.157Z,49.13
2022-08-19T21:21:36.772Z,49.07
2022-08-19T21:24:04.563Z,49.40
2022-08-19T21:26:32.201Z,49.34
2022-08-19T21:28:59.894Z,49.42
2022-08-19T21:31:27.549Z,49.67
2022-08-19T21:33:55.672Z,49.82
2022-08-19T21:36:23.306Z,50.04
2022-08-19T21:38:51.104Z,50.09
2022-08-19T21:41:18.774Z,50.40
2022-08-19T21:43:46.393Z,50.74
2022-08-19T21:46:14.320Z,50.70
2022-08-19T21:48:41.920Z,50.98
2022-08-19T21:51:09.720Z,51.27
2022-08-19T21:53:37.376Z,51.30
2022-08-19T21:56:06.605Z,51.40
2022-08-19T21:58:36.411Z,51.53
2022-08-19T22:01:07.575Z,51.72
2022-08-19T22:03:37.694Z,52.15
2022-08-19T22:06:06.365Z,52.28
2022-08-19T22:08:34.008Z,52.84
2022-08-19T22:11:03.253Z,54.08
2022-08-19T22:13:39.770Z,53.96
2022-08-19T22:16:09.568Z,54.44
2022-08-19T22:18:37.505Z,54.82
2022-08-19T22:21:11.415Z,55.44
2022-08-19T22:23:42.150Z,55.52
2022-08-19T22:26:11.408Z,55.95
2022-08-19T22:28:39.694Z,56.11
2022-08-19T22:31:10.406Z,57.40
2022-08-19T22:33:38.301Z,57.55
2022-08-19T22:36:07.597Z,58.02
2022-08-19T22:38:37.297Z,58.24
2022-08-19T22:41:07.793Z,58.47
2022-08-19T22:43:37.344Z,58.85
2022-08-19T22:46:06.350Z,58.97
2022-08-19T22:48:46.983Z,59.20
2022-08-19T22:51:31.450Z,59.44
2022-08-19T22:53:59.062Z,59.59
2022-08-19T22:56:26.805Z,59.75
2022-08-19T22:58:55.154Z,60.36
2022-08-19T23:01:30.405Z,60.58
2022-08-19T23:03:59.731Z,61.36
2022-08-19T23:06:33.752Z,61.77
2022-08-19T23:09:06.551Z,62.20
2022-08-19T23:11:38.160Z,63.21
2022-08-19T23:14:12.390Z,64.03
2022-08-19T23:16:41.519Z,64.92
2022-08-19T23:19:10.156Z,64.51
2022-08-19T23:21:39.861Z,65.93
2022-08-19T23:24:08.751Z,66.31
2022-08-19T23:26:36.814Z,67.56
2022-08-19T23:29:21.795Z,67.12
2022-08-19T23:31:50.082Z,67.78
2022-08-19T23:34:17.941Z,69.05
2022-08-19T23:36:46.224Z,69.79
2022-08-19T23:39:13.814Z,70.13
2022-08-19T23:41:41.432Z,70.08
2022-08-19T23:44:14.441Z,69.61
2022-08-19T23:46:55.378Z,69.42
2022-08-19T23:49:24.921Z,70.13
2022-08-19T23:51:54.220Z,69.82
2022-08-19T23:54:34.319Z,70.12
2022-08-19T23:57:13.852Z,70.02
2022-08-19T23:59:45.203Z,69.94
